Time;durP1;ratioP1;P1;durP2;ratioP2;P2;SDS_P1;SDS_P2;PMS_P1;PMS_P2;Temp;Humidity;BMP_temperature;BMP_pressure;BME280_temperature;BME280_humidity;BME280_pressure;Samples;Min_cycle;Max_cycle;Signal;HPM_P1;HPM_P2
2022/12/29 00:04:13;;;;;;;;;;;;;;;;;;5034235;28;7052;-75
2022/12/29 00:06:39;;;;;;;;;;;;;;;;;;5034010;28;6982;-74
2022/12/29 00:09:04;;;;;;;;;;;;;;;;;;5033666;28;7093;-75
2022/12/29 00:11:30;;;;;;;;;;;;;;;;;;5033624;28;6936;-74
2022/12/29 00:16:42;;;;;;;;;;;;;;;;;;5034423;28;6997;-75
2022/12/29 00:35:07;;;;;;;;;;;;;;;;;;5037659;28;7235;-75
2022/12/29 00:36:41;;;;;;;;;;;;;;;;;;5037485;28;6954;-75
2022/12/29 00:44:46;;;;;;;;;;;;;;;;;;5037523;28;6801;-75
2022/12/29 00:50:22;;;;;;;;;;;;;;;;;;5036551;28;6918;-75
2022/12/29 00:52:47;;;;;;;;;;;;;;;;;;5052361;28;8794;-75
2022/12/29 00:55:12;;;;;;;;;;;;;;;;;;5036714;28;7206;-75
2022/12/29 00:57:38;;;;;;;;;;;;;;;;;;5036970;28;7313;-75
2022/12/29 01:03:07;;;;;;;;;;;;;;;;;;5036539;28;6929;-75
2022/12/29 01:11:13;;;;;;;;;;;;;;;;;;5130728;22;6846;-73
2022/12/29 01:13:40;;;;;;;;;;;;;;;;;;5017153;28;7216;-73
2022/12/29 01:16:26;;;;;;;;;;;;;;;;;;5016812;28;7282;-73
2022/12/29 01:18:51;;;;;;;;;;;;;;;;;;5016255;28;7117;-73
2022/12/29 01:21:17;;;;;;;;;;;;;;;;;;5016700;28;7082;-73
2022/12/29 01:26:45;;;;;;;;;;;;;;;;;;5016331;28;7015;-72
2022/12/29 01:29:29;;;;;;;;;;;;;;;;;;5016615;28;7152;-73
2022/12/29 01:31:55;;;;;;;;;;;;;;;;;;5016617;28;7737;-73
2022/12/29 01:37:24;;;;;;;;;;;;;;;;;;5016372;28;6854;-73
2022/12/29 01:39:50;;;;;;;;;;;;;;;;;;5016526;28;6914;-73
2022/12/29 01:42:22;;;;;;;;;;;;;;;;;;5016288;28;7252;-73
2022/12/29 01:45:03;;;;;;;;;;;;;;;;;;5016462;28;7791;-73
2022/12/29 01:47:40;;;;;;;;;;;;;;;;;;5015899;28;7221;-73
2022/12/29 01:50:16;;;;;;;;;;;;;;;;;;5031273;28;8557;-73
2022/12/29 01:52:57;;;;;;;;;;;;;;;;;;5016315;28;7182;-73
2022/12/29 01:55:25;;;;;;;;;;;;;;;;;;5016230;28;6890;-73
2022/12/29 01:57:54;;;;;;;;;;;;;;;;;;5016104;28;7476;-73
2022/12/29 02:00:22;;;;;;;;;;;;;;;;;;5016019;28;7150;-73
2022/12/29 02:02:51;;;;;;;;;;;;;;;;;;5015594;28;7000;-72
2022/12/29 02:05:40;;;;;;;;;;;;;;;;;;5015954;28;7209;-73
2022/12/29 02:08:06;;;;;;;;;;;;;;;;;;5015640;28;7249;-73
2022/12/29 02:10:34;;;;;;;;;;;;;;;;;;5007908;28;7377;-72
2022/12/29 02:13:00;;;;;;;;;;;;;;;;;;5015722;28;7164;-73
2022/12/29 02:15:44;;;;;;;;;;;;;;;;;;5015897;28;7476;-73
2022/12/29 02:18:25;;;;;;;;;;;;;;;;;;5015958;28;7023;-73
2022/12/29 02:20:56;;;;;;;;;;;;;;;;;;5014519;28;6964;-73
2022/12/29 02:24:05;;;;;;;;;;;;;;;;;;5015878;28;7445;-72
2022/12/29 02:26:46;;;;;;;;;;;;;;;;;;5017039;28;6836;-73
2022/12/29 02:29:29;;;;;;;;;;;;;;;;;;5016678;28;7117;-72
2022/12/29 02:32:06;;;;;;;;;;;;;;;;;;5015398;28;7124;-73
2022/12/29 02:34:40;;;;;;;;;;;;;;;;;;5015444;28;7141;-73
2022/12/29 02:37:19;;;;;;;;;;;;;;;;;;5015291;28;7462;-73
2022/12/29 02:39:55;;;;;;;;;;;;;;;;;;5014975;28;7174;-73
2022/12/29 02:42:50;;;;;;;;;;;;;;;;;;5015298;28;7229;-73
2022/12/29 02:45:18;;;;;;;;;;;;;;;;;;5016145;28;7062;-72
2022/12/29 02:48:07;;;;;;;;;;;;;;;;;;5015177;28;7183;-72
2022/12/29 02:50:36;;;;;;;;;;;;;;;;;;5015811;28;6946;-72
2022/12/29 02:53:05;;;;;;;;;;;;;;;;;;5015088;28;7205;-73
2022/12/29 02:55:41;;;;;;;;;;;;;;;;;;5015165;28;7062;-73
2022/12/29 02:58:16;;;;;;;;;;;;;;;;;;5014424;28;6904;-72
2022/12/29 03:00:50;;;;;;;;;;;;;;;;;;5015050;28;7085;-72
2022/12/29 03:03:34;;;;;;;;;;;;;;;;;;5015730;28;7225;-73
2022/12/29 03:06:06;;;;;;;;;;;;;;;;;;5015677;28;7004;-72
2022/12/29 03:08:41;;;;;;;;;;;;;;;;;;5014850;28;7093;-72
2022/12/29 03:16:57;;;;;;;;;;;;;;;;;;5015495;28;6805;-72
2022/12/29 03:19:26;;;;;;;;;;;;;;;;;;5013279;28;8493;-72
2022/12/29 03:24:42;;;;;;;;;;;;;;;;;;5015290;28;6914;-73
2022/12/29 03:27:11;;;;;;;;;;;;;;;;;;5014786;28;6956;-72
2022/12/29 03:29:41;;;;;;;;;;;;;;;;;;5014946;28;7171;-72
2022/12/29 03:32:10;;;;;;;;;;;;;;;;;;5014683;28;6976;-72
2022/12/29 03:34:44;;;;;;;;;;;;;;;;;;5015326;28;6984;-73
2022/12/29 03:37:13;;;;;;;;;;;;;;;;;;5014672;28;7043;-72
2022/12/29 03:39:39;;;;;;;;;;;;;;;;;;5015563;28;6964;-73
2022/12/29 03:42:11;;;;;;;;;;;;;;;;;;5015190;28;7348;-72
2022/12/29 03:47:39;;;;;;;;;;;;;;;;;;5014560;28;7402;-73
2022/12/29 03:50:13;;;;;;;;;;;;;;;;;;5014430;28;7045;-73
2022/12/29 03:52:38;;;;;;;;;;;;;;;;;;5016297;28;6929;-73
2022/12/29 03:55:12;;;;;;;;;;;;;;;;;;5018970;28;6824;-73
2022/12/29 03:57:37;;;;;;;;;;;;;;;;;;5017983;28;7090;-73
2022/12/29 04:00:04;;;;;;;;;;;;;;;;;;5018393;28;7213;-73
2022/12/29 04:02:30;;;;;;;;;;;;;;;;;;5019243;28;7304;-73
2022/12/29 04:05:15;;;;;;;;;;;;;;;;;;5018647;28;7099;-73
2022/12/29 04:07:40;;;;;;;;;;;;;;;;;;5018297;28;7167;-73
2022/12/29 04:10:25;;;;;;;;;;;;;;;;;;5015463;28;7041;-73
2022/12/29 04:12:51;;;;;;;;;;;;;;;;;;5018554;28;6988;-73
2022/12/29 04:15:16;;;;;;;;;;;;;;;;;;5016557;28;8430;-73
2022/12/29 04:17:42;;;;;;;;;;;;;;;;;;5017923;28;7084;-73
2022/12/29 04:23:04;;;;;;;;;;;;;;;;;;5018541;28;6800;-73
2022/12/29 04:25:31;;;;;;;;;;;;;;;;;;5018199;28;6973;-73
2022/12/29 04:27:57;;;;;;;;;;;;;;;;;;5017840;28;7198;-73
2022/12/29 04:30:28;;;;;;;;;;;;;;;;;;5018549;28;6959;-73
2022/12/29 04:32:53;;;;;;;;;;;;;;;;;;5018103;28;7163;-73
2022/12/29 04:35:21;;;;;;;;;;;;;;;;;;5017947;28;6944;-73
2022/12/29 04:37:47;;;;;;;;;;;;;;;;;;5017839;28;7030;-73
2022/12/29 04:40:13;;;;;;;;;;;;;;;;;;5017375;28;7183;-74
2022/12/29 04:42:50;;;;;;;;;;;;;;;;;;5018363;28;7126;-74
2022/12/29 04:45:16;;;;;;;;;;;;;;;;;;5017636;28;7044;-74
2022/12/29 04:50:41;;;;;;;;;;;;;;;;;;5017147;28;6829;-73
2022/12/29 04:53:06;;;;;;;;;;;;;;;;;;5032763;28;8816;-73
2022/12/29 04:55:32;;;;;;;;;;;;;;;;;;5018000;28;6974;-73
2022/12/29 04:57:59;;;;;;;;;;;;;;;;;;5016888;28;7878;-72
2022/12/29 05:00:26;;;;;;;;;;;;;;;;;;5017162;28;7186;-73
2022/12/29 05:02:52;;;;;;;;;;;;;;;;;;5016769;28;7354;-72
2022/12/29 05:05:36;;;;;;;;;;;;;;;;;;5017203;28;6862;-73
2022/12/29 05:08:02;;;;;;;;;;;;;;;;;;5017259;28;7203;-72
2022/12/29 05:10:28;;;;;;;;;;;;;;;;;;5016701;28;7367;-73
2022/12/29 05:12:53;;;;;;;;;;;;;;;;;;5017360;28;7213;-72
2022/12/29 05:15:32;;;;;;;;;;;;;;;;;;5017875;28;7250;-73
2022/12/29 05:17:58;;;;;;;;;;;;;;;;;;5017237;28;7120;-72
2022/12/29 05:20:25;;;;;;;;;;;;;;;;;;5015485;28;7521;-72
2022/12/29 05:22:51;;;;;;;;;;;;;;;;;;5016555;28;7064;-73
2022/12/29 05:25:17;;;;;;;;;;;;;;;;;;5008389;28;7169;-73
2022/12/29 05:27:42;;;;;;;;;;;;;;;;;;5016624;28;6966;-73
2022/12/29 05:30:08;;;;;;;;;;;;;;;;;;5016493;28;7022;-73
2022/12/29 05:32:38;;;;;;;;;;;;;;;;;;5017044;28;7174;-73
2022/12/29 05:35:04;;;;;;;;;;;;;;;;;;5016226;28;7222;-73
2022/12/29 05:37:29;;;;;;;;;;;;;;;;;;5016700;28;6873;-73
2022/12/29 05:40:03;;;;;;;;;;;;;;;;;;5016553;28;7141;-73
2022/12/29 05:42:28;;;;;;;;;;;;;;;;;;5017111;28;7045;-73
2022/12/29 05:44:56;;;;;;;;;;;;;;;;;;5016438;28;7265;-73
2022/12/29 05:47:21;;;;;;;;;;;;;;;;;;5016801;28;6992;-73
2022/12/29 05:50:05;;;;;;;;;;;;;;;;;;5016138;28;7381;-73
2022/12/29 05:52:31;;;;;;;;;;;;;;;;;;5016528;28;7164;-72
2022/12/29 05:54:56;;;;;;;;;;;;;;;;;;5016469;28;7003;-72
2022/12/29 05:57:37;;;;;;;;;;;;;;;;;;5016170;28;7208;-72
2022/12/29 06:00:04;;;;;;;;;;;;;;;;;;5015677;28;7282;-72
2022/12/29 06:02:29;;;;;;;;;;;;;;;;;;5015974;28;7168;-73
2022/12/29 06:04:57;;;;;;;;;;;;;;;;;;5016455;28;7155;-73
2022/12/29 06:07:23;;;;;;;;;;;;;;;;;;5015660;28;7157;-73
2022/12/29 06:09:48;;;;;;;;;;;;;;;;;;5030965;28;7157;-72
2022/12/29 06:12:14;;;;;;;;;;;;;;;;;;5013293;28;6923;-73
2022/12/29 06:14:39;;;;;;;;;;;;;;;;;;5015331;28;6948;-72
2022/12/29 06:17:05;;;;;;;;;;;;;;;;;;5016153;28;7129;-72
2022/12/29 06:19:35;;;;;;;;;;;;;;;;;;5015204;28;7138;-72
2022/12/29 06:22:01;;;;;;;;;;;;;;;;;;5016503;28;7230;-72
2022/12/29 06:24:27;;;;;;;;;;;;;;;;;;5015758;28;6919;-71
2022/12/29 06:26:53;;;;;;;;;;;;;;;;;;5015562;28;7039;-72
2022/12/29 06:29:20;;;;;;;;;;;;;;;;;;5015458;28;7123;-71
2022/12/29 06:31:47;;;;;;;;;;;;;;;;;;5015308;28;7058;-71
2022/12/29 06:34:13;;;;;;;;;;;;;;;;;;5015382;28;6973;-71
2022/12/29 06:36:39;;;;;;;;;;;;;;;;;;5015339;28;7257;-71
2022/12/29 06:39:05;;;;;;;;;;;;;;;;;;5014838;28;6860;-71
2022/12/29 06:41:31;;;;;;;;;;;;;;;;;;5016009;28;7204;-71
2022/12/29 06:43:56;;;;;;;;;;;;;;;;;;5014758;28;6963;-71
2022/12/29 06:46:22;;;;;;;;;;;;;;;;;;5015524;28;7232;-72
2022/12/29 06:51:50;;;;;;;;;;;;;;;;;;5014966;28;6748;-72
2022/12/29 06:54:16;;;;;;;;;;;;;;;;;;5015150;28;6927;-74
2022/12/29 06:56:41;;;;;;;;;;;;;;;;;;5015172;28;7042;-69
2022/12/29 06:59:07;;;;;;;;;;;;;;;;;;5014579;28;6963;-71
2022/12/29 07:01:32;;;;;;;;;;;;;;;;;;5015051;28;7389;-71
2022/12/29 07:04:11;;;;;;;;;;;;;;;;;;5015109;28;7160;-71
2022/12/29 07:06:37;;;;;;;;;;;;;;;;;;5013842;28;6984;-69
2022/12/29 07:12:10;;;;;;;;;;;;;;;;;;5010514;28;6741;-69
2022/12/29 07:14:36;;;;;;;;;;;;;;;;;;5014667;28;6993;-69
2022/12/29 07:17:02;;;;;;;;;;;;;;;;;;5014696;28;7382;-69
2022/12/29 07:22:30;;;;;;;;;;;;;;;;;;5014562;28;6912;-69
2022/12/29 07:27:58;;;;;;;;;;;;;;;;;;5018448;28;6693;-69
2022/12/29 07:33:32;;;;;;;;;;;;;;;;;;5018459;28;6721;-69
2022/12/29 07:35:58;;;;;;;;;;;;;;;;;;5018908;28;7064;-69
2022/12/29 07:38:31;;;;;;;;;;;;;;;;;;5018219;28;6970;-69
2022/12/29 07:40:57;;;;;;;;;;;;;;;;;;5018255;28;7130;-69
2022/12/29 07:43:26;;;;;;;;;;;;;;;;;;5019093;28;7395;-70
2022/12/29 07:45:51;;;;;;;;;;;;;;;;;;5018549;28;7064;-69
2022/12/29 07:48:17;;;;;;;;;;;;;;;;;;5018230;28;7162;-69
2022/12/29 07:50:59;;;;;;;;;;;;;;;;;;5018085;28;7401;-69
2022/12/29 07:53:24;;;;;;;;;;;;;;;;;;5018720;28;6911;-70
2022/12/29 07:55:51;;;;;;;;;;;;;;;;;;5018469;28;6822;-70
2022/12/29 07:58:34;;;;;;;;;;;;;;;;;;5018152;28;7193;-70
2022/12/29 08:01:00;;;;;;;;;;;;;;;;;;5017960;28;7589;-70
2022/12/29 08:03:26;;;;;;;;;;;;;;;;;;5018520;28;7147;-70
2022/12/29 08:05:53;;;;;;;;;;;;;;;;;;5033544;28;8455;-70
2022/12/29 08:08:20;;;;;;;;;;;;;;;;;;5018167;28;7131;-70
2022/12/29 08:10:46;;;;;;;;;;;;;;;;;;5017916;28;7139;-70
2022/12/29 08:13:12;;;;;;;;;;;;;;;;;;5017747;28;7141;-71
2022/12/29 08:15:40;;;;;;;;;;;;;;;;;;5018024;28;7247;-70
2022/12/29 08:18:14;;;;;;;;;;;;;;;;;;5018328;28;7167;-70
2022/12/29 08:20:40;;;;;;;;;;;;;;;;;;5017538;28;7038;-70
2022/12/29 08:23:05;;;;;;;;;;;;;;;;;;5017751;28;6889;-68
2022/12/29 08:25:32;;;;;;;;;;;;;;;;;;5032822;28;8799;-69
2022/12/29 08:27:58;;;;;;;;;;;;;;;;;;5032696;28;8458;-69
2022/12/29 08:30:26;;;;;;;;;;;;;;;;;;5017777;28;7404;-69
2022/12/29 08:32:51;;;;;;;;;;;;;;;;;;5017127;28;8251;-69
2022/12/29 08:38:22;;;;;;;;;;;;;;;;;;5016159;28;7007;-69
2022/12/29 08:40:47;;;;;;;;;;;;;;;;;;5017207;28;7087;-69
2022/12/29 08:43:13;;;;;;;;;;;;;;;;;;5017398;28;7104;-69
2022/12/29 08:45:38;;;;;;;;;;;;;;;;;;5033085;28;7064;-69
2022/12/29 08:48:04;;;;;;;;;;;;;;;;;;5017439;28;7044;-69
2022/12/29 08:50:38;;;;;;;;;;;;;;;;;;5001316;28;7196;-70
2022/12/29 08:53:03;;;;;;;;;;;;;;;;;;5017362;28;7015;-69
2022/12/29 08:55:39;;;;;;;;;;;;;;;;;;5015952;28;7089;-70
2022/12/29 08:58:05;;;;;;;;;;;;;;;;;;5006246;28;7152;-71
2022/12/29 09:00:31;;;;;;;;;;;;;;;;;;5012042;28;8442;-69
2022/12/29 09:02:57;;;;;;;;;;;;;;;;;;5008686;28;7470;-69
2022/12/29 09:05:22;;;;;;;;;;;;;;;;;;5015529;28;7161;-69
2022/12/29 09:07:57;;;;;;;;;;;;;;;;;;5015171;28;6957;-70
2022/12/29 09:10:23;;;;;;;;;;;;;;;;;;5015456;28;7188;-67
2022/12/29 09:12:49;;;;;;;;;;;;;;;;;;5013117;28;7201;-67
2022/12/29 09:15:25;;;;;;;;;;;;;;;;;;5009498;28;6959;-67
2022/12/29 09:17:50;;;;;;;;;;;;;;;;;;5014207;28;6912;-67
2022/12/29 09:20:21;;;;;;;;;;;;;;;;;;5015730;28;7200;-67
2022/12/29 09:22:47;;;;;;;;;;;;;;;;;;5014567;28;7061;-67
2022/12/29 09:28:39;;;;;;;;;;;;;;;;;;5014811;28;6950;-67
2022/12/29 09:31:05;;;;;;;;;;;;;;;;;;5007359;28;7273;-67
2022/12/29 09:33:36;;;;;;;;;;;;;;;;;;5015515;28;7455;-67
2022/12/29 09:36:02;;;;;;;;;;;;;;;;;;5015764;28;7162;-67
2022/12/29 09:38:39;;;;;;;;;;;;;;;;;;5029666;28;6869;-67
2022/12/29 09:41:27;;;;;;;;;;;;;;;;;;5015600;28;7174;-67
2022/12/29 09:44:09;;;;;;;;;;;;;;;;;;5016434;28;7429;-67
2022/12/29 09:46:40;;;;;;;;;;;;;;;;;;5016259;28;7409;-68
2022/12/29 09:49:25;;;;;;;;;;;;;;;;;;5015441;28;6961;-67
2022/12/29 09:51:53;;;;;;;;;;;;;;;;;;5011763;28;7539;-67
2022/12/29 09:54:25;;;;;;;;;;;;;;;;;;5012371;28;6944;-67
2022/12/29 09:56:53;;;;;;;;;;;;;;;;;;5015680;28;6983;-67
2022/12/29 09:59:21;;;;;;;;;;;;;;;;;;5014936;28;6963;-67
2022/12/29 10:01:47;;;;;;;;;;;;;;;;;;5015878;28;7380;-67
2022/12/29 10:04:13;;;;;;;;;;;;;;;;;;5015410;28;7007;-67
2022/12/29 10:07:02;;;;;;;;;;;;;;;;;;5016580;28;7052;-67
2022/12/29 10:09:42;;;;;;;;;;;;;;;;;;5015331;28;6931;-67
2022/12/29 10:12:10;;;;;;;;;;;;;;;;;;5015460;28;7038;-67
2022/12/29 10:14:51;;;;;;;;;;;;;;;;;;5015513;28;7051;-67
2022/12/29 10:17:35;;;;;;;;;;;;;;;;;;5015250;28;7127;-67
2022/12/29 10:20:19;;;;;;;;;;;;;;;;;;5015961;28;7246;-67
2022/12/29 10:22:48;;;;;;;;;;;;;;;;;;5015055;28;7039;-67
2022/12/29 10:25:20;;;;;;;;;;;;;;;;;;5015643;28;7419;-69
2022/12/29 10:27:51;;;;;;;;;;;;;;;;;;5015417;28;7153;-68
2022/12/29 10:30:18;;;;;;;;;;;;;;;;;;5015899;28;7334;-69
2022/12/29 10:36:03;;;;;;;;;;;;;;;;;;5015082;28;6802;-69
2022/12/29 10:38:34;;;;;;;;;;;;;;;;;;5015037;28;6921;-68
2022/12/29 10:44:20;;;;;;;;;;;;;;;;;;5014817;28;6688;-68
2022/12/29 10:55:55;;;;;;;;;;;;;;;;;;5015073;28;6699;-70
2022/12/29 10:58:22;;;;;;;;;;;;;;;;;;5014569;28;7230;-68
2022/12/29 11:00:53;;;;;;;;;;;;;;;;;;5014341;28;7172;-68
2022/12/29 11:03:37;;;;;;;;;;;;;;;;;;5014765;28;7066;-68
2022/12/29 11:16:14;;;;;;;;;;;;;;;;;;5014506;28;6682;-68
2022/12/29 11:19:15;;;;;;;;;;;;;;;;;;5014676;28;7180;-69
2022/12/29 11:21:41;;;;;;;;;;;;;;;;;;5014548;28;7061;-69
2022/12/29 11:24:24;;;;;;;;;;;;;;;;;;5014622;28;7039;-68
2022/12/29 11:27:12;;;;;;;;;;;;;;;;;;5014464;28;7075;-67
2022/12/29 11:29:41;;;;;;;;;;;;;;;;;;5014631;28;7065;-68
2022/12/29 11:32:23;;;;;;;;;;;;;;;;;;5014562;28;7027;-69
2022/12/29 11:37:58;;;;;;;;;;;;;;;;;;5014535;28;6689;-68
2022/12/29 11:40:23;;;;;;;;;;;;;;;;;;5014091;28;7434;-68
2022/12/29 11:46:03;;;;;;;;;;;;;;;;;;5014094;28;6814;-68
2022/12/29 11:48:33;;;;;;;;;;;;;;;;;;5014516;28;7179;-68
2022/12/29 11:50:59;;;;;;;;;;;;;;;;;;5012828;28;7260;-69
2022/12/29 11:56:33;;;;;;;;;;;;;;;;;;5013911;28;6923;-69
2022/12/29 12:02:00;;;;;;;;;;;;;;;;;;5014514;28;7064;-69
2022/12/29 12:07:53;;;;;;;;;;;;;;;;;;5014009;28;6711;-69
2022/12/29 12:10:24;;;;;;;;;;;;;;;;;;5014046;28;6993;-68
2022/12/29 12:13:02;;;;;;;;;;;;;;;;;;5006470;28;7010;-68
2022/12/29 12:21:52;;;;;;;;;;;;;;;;;;5017423;28;6739;-68
2022/12/29 12:24:32;;;;;;;;;;;;;;;;;;5017688;28;7255;-67
2022/12/29 12:27:16;;;;;;;;;;;;;;;;;;5017639;28;7088;-68
2022/12/29 12:32:50;;;;;;;;;;;;;;;;;;5017496;28;6763;-67
2022/12/29 12:35:27;;;;;;;;;;;;;;;;;;5017342;28;7045;-66
2022/12/29 12:37:53;;;;;;;;;;;;;;;;;;5016601;28;6860;-67
2022/12/29 12:40:19;;;;;;;;;;;;;;;;;;5017325;28;7173;-67
2022/12/29 12:43:13;;;;;;;;;;;;;;;;;;5017057;28;6979;-67
2022/12/29 12:46:02;;;;;;;;;;;;;;;;;;5017732;28;7048;-66
2022/12/29 12:48:40;;;;;;;;;;;;;;;;;;5032594;28;7192;-66
2022/12/29 12:51:29;;;;;;;;;;;;;;;;;;5017087;28;7324;-66
2022/12/29 12:54:24;;;;;;;;;;;;;;;;;;5017533;28;7155;-69
2022/12/29 12:56:52;;;;;;;;;;;;;;;;;;5008157;28;6874;-69
2022/12/29 12:59:19;;;;;;;;;;;;;;;;;;5032299;28;7269;-69
2022/12/29 13:01:44;;;;;;;;;;;;;;;;;;5016906;28;7221;-69
2022/12/29 13:04:13;;;;;;;;;;;;;;;;;;5016983;28;7027;-69
2022/12/29 13:06:54;;;;;;;;;;;;;;;;;;5017006;28;7244;-70
2022/12/29 13:09:19;;;;;;;;;;;;;;;;;;5014219;28;7086;-70
2022/12/29 13:11:51;;;;;;;;;;;;;;;;;;5017018;28;6842;-70
2022/12/29 13:14:31;;;;;;;;;;;;;;;;;;5016848;28;6964;-70
2022/12/29 13:17:03;;;;;;;;;;;;;;;;;;5031820;28;7264;-70
2022/12/29 13:19:28;;;;;;;;;;;;;;;;;;5016217;28;6968;-70
2022/12/29 13:22:05;;;;;;;;;;;;;;;;;;5016688;28;6925;-70
2022/12/29 13:24:49;;;;;;;;;;;;;;;;;;5017650;28;7050;-70
2022/12/29 13:27:23;;;;;;;;;;;;;;;;;;5016810;28;7383;-70
2022/12/29 13:29:50;;;;;;;;;;;;;;;;;;5014705;28;7190;-70
2022/12/29 13:32:15;;;;;;;;;;;;;;;;;;5016546;28;6833;-70
2022/12/29 13:34:50;;;;;;;;;;;;;;;;;;5016428;28;7042;-70
2022/12/29 13:37:19;;;;;;;;;;;;;;;;;;5016325;28;7204;-70
2022/12/29 13:39:51;;;;;;;;;;;;;;;;;;5016274;28;7264;-70
2022/12/29 13:42:19;;;;;;;;;;;;;;;;;;5016363;28;7137;-70
2022/12/29 13:44:44;;;;;;;;;;;;;;;;;;5016203;28;6944;-70
2022/12/29 13:47:13;;;;;;;;;;;;;;;;;;5016186;28;7190;-70
2022/12/29 13:49:39;;;;;;;;;;;;;;;;;;5031074;28;8434;-70
2022/12/29 13:52:15;;;;;;;;;;;;;;;;;;5016021;28;7417;-70
2022/12/29 13:54:53;;;;;;;;;;;;;;;;;;5015998;28;7062;-70
2022/12/29 13:57:30;;;;;;;;;;;;;;;;;;5015979;28;8081;-70
2022/12/29 13:59:56;;;;;;;;;;;;;;;;;;5016586;28;7082;-70
2022/12/29 14:02:40;;;;;;;;;;;;;;;;;;5016126;28;7033;-70
2022/12/29 14:05:25;;;;;;;;;;;;;;;;;;5015829;28;7431;-70
2022/12/29 14:08:01;;;;;;;;;;;;;;;;;;5015736;28;6939;-70
2022/12/29 14:10:30;;;;;;;;;;;;;;;;;;5015770;28;7406;-70
2022/12/29 14:13:24;;;;;;;;;;;;;;;;;;5015649;28;7125;-70
2022/12/29 14:15:52;;;;;;;;;;;;;;;;;;5006936;28;7146;-70
2022/12/29 14:18:23;;;;;;;;;;;;;;;;;;5015840;28;7449;-70
2022/12/29 14:20:52;;;;;;;;;;;;;;;;;;5015331;28;7160;-70
2022/12/29 14:23:27;;;;;;;;;;;;;;;;;;5015631;28;6929;-70
2022/12/29 14:25:58;;;;;;;;;;;;;;;;;;5015675;28;6983;-71
2022/12/29 14:28:28;;;;;;;;;;;;;;;;;;5015130;28;7148;-71
2022/12/29 14:30:55;;;;;;;;;;;;;;;;;;5015285;28;7626;-71
2022/12/29 14:33:22;;;;;;;;;;;;;;;;;;5014585;28;7222;-71
2022/12/29 14:35:52;;;;;;;;;;;;;;;;;;5013961;28;7168;-71
2022/12/29 14:38:29;;;;;;;;;;;;;;;;;;5014749;28;7160;-71
2022/12/29 14:41:17;;;;;;;;;;;;;;;;;;5015963;28;7064;-71
2022/12/29 14:43:53;;;;;;;;;;;;;;;;;;5013793;28;8759;-71
2022/12/29 14:46:18;;;;;;;;;;;;;;;;;;5013657;28;6970;-70
2022/12/29 14:48:44;;;;;;;;;;;;;;;;;;5014109;28;7165;-70
2022/12/29 14:51:35;;;;;;;;;;;;;;;;;;5014085;28;6947;-70
2022/12/29 14:54:22;;;;;;;;;;;;;;;;;;5012597;28;7196;-71
2022/12/29 14:56:49;;;;;;;;;;;;;;;;;;5012398;28;7258;-71
2022/12/29 14:59:16;;;;;;;;;;;;;;;;;;5014680;28;7087;-70
2022/12/29 15:01:50;;;;;;;;;;;;;;;;;;5014883;28;7083;-71
2022/12/29 15:04:20;;;;;;;;;;;;;;;;;;5013103;28;7153;-71
2022/12/29 15:06:49;;;;;;;;;;;;;;;;;;5014645;28;7245;-70
2022/12/29 15:09:26;;;;;;;;;;;;;;;;;;5014155;28;7437;-70
2022/12/29 15:12:00;;;;;;;;;;;;;;;;;;5014290;28;7147;-71
2022/12/29 15:14:32;;;;;;;;;;;;;;;;;;5014254;28;7509;-71
2022/12/29 15:16:57;;;;;;;;;;;;;;;;;;5010593;28;7349;-71
2022/12/29 15:19:24;;;;;;;;;;;;;;;;;;5002882;28;7163;-70
2022/12/29 15:21:49;;;;;;;;;;;;;;;;;;5002091;28;7388;-71
2022/12/29 15:24:15;;;;;;;;;;;;;;;;;;5006682;28;7072;-71
2022/12/29 15:26:44;;;;;;;;;;;;;;;;;;5014578;28;7296;-70
2022/12/29 15:29:32;;;;;;;;;;;;;;;;;;5014820;28;7385;-70
2022/12/29 15:32:11;;;;;;;;;;;;;;;;;;5014522;28;7008;-70
2022/12/29 15:34:37;;;;;;;;;;;;;;;;;;5014977;28;7089;-70
2022/12/29 15:37:07;;;;;;;;;;;;;;;;;;5014769;28;7136;-70
2022/12/29 15:39:33;;;;;;;;;;;;;;;;;;5014678;28;7291;-70
2022/12/29 15:42:17;;;;;;;;;;;;;;;;;;5029897;28;8728;-70
2022/12/29 15:44:44;;;;;;;;;;;;;;;;;;5014626;28;7069;-70
2022/12/29 15:47:18;;;;;;;;;;;;;;;;;;5015568;28;7364;-70
2022/12/29 15:49:49;;;;;;;;;;;;;;;;;;5018048;28;7525;-70
2022/12/29 15:52:19;;;;;;;;;;;;;;;;;;5018371;28;7141;-70
2022/12/29 15:54:48;;;;;;;;;;;;;;;;;;5017785;28;6953;-70
2022/12/29 15:57:22;;;;;;;;;;;;;;;;;;5018472;28;7460;-70
2022/12/29 15:59:48;;;;;;;;;;;;;;;;;;5018295;28;7190;-70
2022/12/29 16:02:14;;;;;;;;;;;;;;;;;;5018310;28;7034;-70
2022/12/29 16:04:41;;;;;;;;;;;;;;;;;;5016039;28;7117;-71
2022/12/29 16:07:58;;;;;;;;;;;;;;;;;;5067929;27;6664;-70
2022/12/29 16:10:23;;;;;;;;;;;;;;;;;;5016750;28;6986;-70
2022/12/29 16:12:49;;;;;;;;;;;;;;;;;;5025307;28;6960;-70
2022/12/29 16:15:14;;;;;;;;;;;;;;;;;;5016659;28;7468;-70
2022/12/29 16:17:48;;;;;;;;;;;;;;;;;;5012377;28;7191;-70
2022/12/29 16:20:13;;;;;;;;;;;;;;;;;;5015983;28;7205;-70
2022/12/29 16:22:43;;;;;;;;;;;;;;;;;;5018027;28;7293;-70
2022/12/29 16:25:17;;;;;;;;;;;;;;;;;;5019461;28;6981;-70
2022/12/29 16:27:44;;;;;;;;;;;;;;;;;;5021759;28;6934;-70
2022/12/29 16:30:26;;;;;;;;;;;;;;;;;;5011876;28;7485;-72
2022/12/29 16:32:54;;;;;;;;;;;;;;;;;;5011863;28;8177;-72
2022/12/29 16:35:25;;;;;;;;;;;;;;;;;;5011659;28;7138;-70
2022/12/29 16:38:09;;;;;;;;;;;;;;;;;;5010473;28;8863;-70
2022/12/29 16:40:48;;;;;;;;;;;;;;;;;;5028079;28;7493;-70
2022/12/29 16:43:25;;;;;;;;;;;;;;;;;;5030888;28;7082;-70
2022/12/29 16:45:51;;;;;;;;;;;;;;;;;;5019239;28;7201;-70
2022/12/29 16:48:16;;;;;;;;;;;;;;;;;;5018380;28;7084;-70
2022/12/29 16:50:44;;;;;;;;;;;;;;;;;;5016641;28;7185;-70
2022/12/29 16:53:27;;;;;;;;;;;;;;;;;;5015527;28;7163;-70
2022/12/29 16:55:54;;;;;;;;;;;;;;;;;;5026058;28;7077;-71
2022/12/29 16:58:26;;;;;;;;;;;;;;;;;;5030742;28;7046;-71
2022/12/29 17:00:55;;;;;;;;;;;;;;;;;;5031426;28;7229;-71
2022/12/29 17:03:22;;;;;;;;;;;;;;;;;;5029855;28;7016;-71
2022/12/29 17:05:47;;;;;;;;;;;;;;;;;;5024097;28;7242;-71
2022/12/29 17:08:23;;;;;;;;;;;;;;;;;;5019962;28;7031;-71
2022/12/29 17:13:38;;;;;;;;;;;;;;;;;;5018591;28;7038;-71
2022/12/29 17:16:06;;;;;;;;;;;;;;;;;;5011236;28;7050;-71
2022/12/29 17:18:33;;;;;;;;;;;;;;;;;;5002257;28;7147;-71
2022/12/29 17:20:59;;;;;;;;;;;;;;;;;;4998198;28;7211;-71
2022/12/29 17:23:25;;;;;;;;;;;;;;;;;;4998040;28;7170;-71
2022/12/29 17:25:53;;;;;;;;;;;;;;;;;;4997714;28;8686;-71
2022/12/29 17:28:22;;;;;;;;;;;;;;;;;;4997798;28;7410;-71
2022/12/29 17:30:48;;;;;;;;;;;;;;;;;;4998308;28;6968;-71
2022/12/29 17:33:16;;;;;;;;;;;;;;;;;;4997840;28;7386;-71
2022/12/29 17:35:42;;;;;;;;;;;;;;;;;;4998061;28;7074;-71
2022/12/29 17:38:28;;;;;;;;;;;;;;;;;;4997809;28;7555;-71
2022/12/29 17:40:54;;;;;;;;;;;;;;;;;;5011051;28;6947;-71
2022/12/29 17:43:20;;;;;;;;;;;;;;;;;;5017445;28;7203;-71
2022/12/29 17:45:49;;;;;;;;;;;;;;;;;;5017298;28;7461;-71
2022/12/29 17:48:16;;;;;;;;;;;;;;;;;;5015816;28;9635;-72
2022/12/29 17:50:42;;;;;;;;;;;;;;;;;;5017144;28;7088;-71
2022/12/29 17:53:23;;;;;;;;;;;;;;;;;;5017179;28;7000;-71
2022/12/29 17:55:48;;;;;;;;;;;;;;;;;;5017564;28;6811;-71
2022/12/29 17:58:16;;;;;;;;;;;;;;;;;;5017244;28;7941;-71
2022/12/29 18:00:42;;;;;;;;;;;;;;;;;;5009496;28;7397;-71
2022/12/29 18:03:13;;;;;;;;;;;;;;;;;;5014444;28;7196;-71
2022/12/29 18:05:38;;;;;;;;;;;;;;;;;;5008331;28;7308;-71
2022/12/29 18:08:04;;;;;;;;;;;;;;;;;;5016858;28;6814;-71
2022/12/29 18:10:30;;;;;;;;;;;;;;;;;;5016701;28;7138;-71
2022/12/29 18:12:58;;;;;;;;;;;;;;;;;;5016590;28;7149;-68
2022/12/29 18:15:26;;;;;;;;;;;;;;;;;;5016693;28;7172;-68
2022/12/29 18:18:12;;;;;;;;;;;;;;;;;;5016239;28;7318;-68
2022/12/29 18:20:39;;;;;;;;;;;;;;;;;;5016469;28;7118;-68
2022/12/29 18:23:05;;;;;;;;;;;;;;;;;;5016276;28;7014;-67
2022/12/29 18:25:48;;;;;;;;;;;;;;;;;;5016505;28;7266;-68
2022/12/29 18:28:13;;;;;;;;;;;;;;;;;;5016338;28;7143;-67
2022/12/29 18:30:39;;;;;;;;;;;;;;;;;;5015601;28;7178;-67
2022/12/29 18:33:05;;;;;;;;;;;;;;;;;;5016491;28;7368;-67
2022/12/29 18:35:38;;;;;;;;;;;;;;;;;;5003583;28;7144;-67
2022/12/29 18:38:05;;;;;;;;;;;;;;;;;;4996769;28;7134;-67
2022/12/29 18:40:32;;;;;;;;;;;;;;;;;;4996257;28;7144;-67
2022/12/29 18:42:58;;;;;;;;;;;;;;;;;;4996637;28;7096;-67
2022/12/29 18:45:24;;;;;;;;;;;;;;;;;;4996459;28;7196;-67
2022/12/29 18:47:50;;;;;;;;;;;;;;;;;;4996530;28;7139;-67
2022/12/29 18:50:17;;;;;;;;;;;;;;;;;;4996492;28;7531;-67
2022/12/29 18:52:44;;;;;;;;;;;;;;;;;;4996343;28;6912;-68
2022/12/29 18:55:16;;;;;;;;;;;;;;;;;;4996523;28;7137;-67
2022/12/29 18:57:41;;;;;;;;;;;;;;;;;;4994577;28;7003;-68
2022/12/29 19:00:08;;;;;;;;;;;;;;;;;;5000242;28;7062;-68
2022/12/29 19:02:34;;;;;;;;;;;;;;;;;;5003224;28;8586;-67
2022/12/29 19:04:59;;;;;;;;;;;;;;;;;;5005486;28;7065;-67
2022/12/29 19:07:26;;;;;;;;;;;;;;;;;;5013892;28;8852;-68
2022/12/29 19:09:51;;;;;;;;;;;;;;;;;;5005500;28;6962;-67
2022/12/29 19:12:17;;;;;;;;;;;;;;;;;;4996139;28;7177;-67
2022/12/29 19:14:43;;;;;;;;;;;;;;;;;;4995826;28;7254;-68
2022/12/29 19:17:12;;;;;;;;;;;;;;;;;;5015403;28;7016;-67
2022/12/29 19:19:41;;;;;;;;;;;;;;;;;;5015439;28;7409;-67
2022/12/29 19:22:08;;;;;;;;;;;;;;;;;;5014225;28;7186;-67
2022/12/29 19:24:34;;;;;;;;;;;;;;;;;;5015166;28;7211;-67
2022/12/29 19:26:59;;;;;;;;;;;;;;;;;;5015277;28;7343;-67
2022/12/29 19:29:25;;;;;;;;;;;;;;;;;;5015309;28;7125;-67
2022/12/29 19:31:51;;;;;;;;;;;;;;;;;;5015346;28;7175;-67
2022/12/29 19:34:17;;;;;;;;;;;;;;;;;;5006647;28;7198;-67
2022/12/29 19:36:43;;;;;;;;;;;;;;;;;;4995628;28;7118;-67
2022/12/29 19:39:09;;;;;;;;;;;;;;;;;;5007525;28;7161;-68
2022/12/29 19:41:34;;;;;;;;;;;;;;;;;;5015232;28;7157;-67
2022/12/29 19:44:00;;;;;;;;;;;;;;;;;;5014708;28;7994;-67